sensor_id;sensor_type;location;lat;lon;timestamp;P1;durP1;ratioP1;P2;durP2;ratioP2
63342;SDS011;49465;57.664;39.686;2024-02-15T00:01:46;6.07;;;1.67;;
63342;SDS011;49465;57.664;39.686;2024-02-15T00:04:15;2.90;;;1.40;;
63342;SDS011;49465;57.664;39.686;2024-02-15T00:06:45;3.97;;;1.23;;
63342;SDS011;49465;57.664;39.686;2024-02-15T00:09:17;1.45;;;0.80;;
63342;SDS011;49465;57.664;39.686;2024-02-15T00:11:47;18.58;;;0.88;;
63342;SDS011;49465;57.664;39.686;2024-02-15T00:14:19;2.97;;;1.40;;
63342;SDS011;49465;57.664;39.686;2024-02-15T00:16:45;0.90;;;0.85;;
63342;SDS011;49465;57.664;39.686;2024-02-15T00:19:15;0.82;;;0.60;;
63342;SDS011;49465;57.664;39.686;2024-02-15T00:21:49;2.03;;;1.17;;
63342;SDS011;49465;57.664;39.686;2024-02-15T00:24:18;5.15;;;1.85;;
63342;SDS011;49465;57.664;39.686;2024-02-15T00:26:51;6.82;;;2.20;;
63342;SDS011;49465;57.664;39.686;2024-02-15T00:29:22;0.73;;;0.73;;
63342;SDS011;49465;57.664;39.686;2024-02-15T00:31:51;4.45;;;1.48;;
63342;SDS011;49465;57.664;39.686;2024-02-15T00:34:30;1.30;;;0.68;;
63342;SDS011;49465;57.664;39.686;2024-02-15T00:37:08;2.72;;;1.58;;
63342;SDS011;49465;57.664;39.686;2024-02-15T00:39:44;2.50;;;0.93;;
63342;SDS011;49465;57.664;39.686;2024-02-15T00:42:17;3.95;;;1.63;;
63342;SDS011;49465;57.664;39.686;2024-02-15T00:44:49;1.27;;;1.00;;
63342;SDS011;49465;57.664;39.686;2024-02-15T00:47:18;0.77;;;0.77;;
63342;SDS011;49465;57.664;39.686;2024-02-15T00:49:50;1.75;;;0.82;;
63342;SDS011;49465;57.664;39.686;2024-02-15T00:52:22;1.75;;;1.25;;
63342;SDS011;49465;57.664;39.686;2024-02-15T00:55:10;10.68;;;1.50;;
63342;SDS011;49465;57.664;39.686;2024-02-15T00:57:42;0.50;;;0.50;;
63342;SDS011;49465;57.664;39.686;2024-02-15T01:00:16;2.65;;;1.58;;
63342;SDS011;49465;57.664;39.686;2024-02-15T01:02:48;2.15;;;1.13;;
63342;SDS011;49465;57.664;39.686;2024-02-15T01:05:21;3.30;;;1.33;;
63342;SDS011;49465;57.664;39.686;2024-02-15T01:07:49;1.05;;;0.73;;
63342;SDS011;49465;57.664;39.686;2024-02-15T01:10:23;4.18;;;3.80;;
63342;SDS011;49465;57.664;39.686;2024-02-15T01:12:55;4.40;;;1.30;;
63342;SDS011;49465;57.664;39.686;2024-02-15T01:15:24;0.40;;;0.40;;
63342;SDS011;49465;57.664;39.686;2024-02-15T01:18:03;5.85;;;1.58;;
63342;SDS011;49465;57.664;39.686;2024-02-15T01:20:32;1.92;;;1.15;;
63342;SDS011;49465;57.664;39.686;2024-02-15T01:23:03;2.88;;;1.08;;
63342;SDS011;49465;57.664;39.686;2024-02-15T01:25:32;4.07;;;1.70;;
63342;SDS011;49465;57.664;39.686;2024-02-15T01:28:02;8.85;;;2.67;;
63342;SDS011;49465;57.664;39.686;2024-02-15T01:30:34;0.57;;;0.57;;
63342;SDS011;49465;57.664;39.686;2024-02-15T01:33:06;3.80;;;1.52;;
63342;SDS011;49465;57.664;39.686;2024-02-15T01:35:41;12.75;;;2.67;;
63342;SDS011;49465;57.664;39.686;2024-02-15T01:38:13;2.50;;;1.00;;
63342;SDS011;49465;57.664;39.686;2024-02-15T01:40:40;1.13;;;0.68;;
63342;SDS011;49465;57.664;39.686;2024-02-15T01:43:10;3.13;;;1.25;;
63342;SDS011;49465;57.664;39.686;2024-02-15T01:45:43;1.13;;;0.77;;
63342;SDS011;49465;57.664;39.686;2024-02-15T01:48:17;6.70;;;1.25;;
63342;SDS011;49465;57.664;39.686;2024-02-15T01:50:49;1.50;;;0.90;;
63342;SDS011;49465;57.664;39.686;2024-02-15T01:53:22;2.17;;;1.17;;
63342;SDS011;49465;57.664;39.686;2024-02-15T01:56:01;3.95;;;1.75;;
63342;SDS011;49465;57.664;39.686;2024-02-15T01:58:30;6.57;;;2.38;;
63342;SDS011;49465;57.664;39.686;2024-02-15T02:01:02;3.80;;;1.52;;
63342;SDS011;49465;57.664;39.686;2024-02-15T02:03:37;0.70;;;0.70;;
63342;SDS011;49465;57.664;39.686;2024-02-15T02:06:09;1.83;;;0.88;;
63342;SDS011;49465;57.664;39.686;2024-02-15T02:08:42;1.13;;;0.95;;
63342;SDS011;49465;57.664;39.686;2024-02-15T02:11:14;4.93;;;1.10;;
63342;SDS011;49465;57.664;39.686;2024-02-15T02:13:53;3.22;;;1.63;;
63342;SDS011;49465;57.664;39.686;2024-02-15T02:16:28;5.40;;;2.08;;
63342;SDS011;49465;57.664;39.686;2024-02-15T02:18:59;2.42;;;1.08;;
63342;SDS011;49465;57.664;39.686;2024-02-15T02:21:36;2.83;;;1.10;;
63342;SDS011;49465;57.664;39.686;2024-02-15T02:24:15;2.83;;;1.25;;
63342;SDS011;49465;57.664;39.686;2024-02-15T02:26:52;1.45;;;1.10;;
63342;SDS011;49465;57.664;39.686;2024-02-15T02:29:23;1.48;;;0.90;;
63342;SDS011;49465;57.664;39.686;2024-02-15T02:32:00;1.73;;;0.82;;
63342;SDS011;49465;57.664;39.686;2024-02-15T02:34:30;5.15;;;1.60;;
63342;SDS011;49465;57.664;39.686;2024-02-15T02:37:05;1.40;;;0.77;;
63342;SDS011;49465;57.664;39.686;2024-02-15T02:39:39;4.60;;;2.13;;
63342;SDS011;49465;57.664;39.686;2024-02-15T02:42:11;6.43;;;2.17;;
63342;SDS011;49465;57.664;39.686;2024-02-15T02:44:40;2.88;;;0.90;;
63342;SDS011;49465;57.664;39.686;2024-02-15T02:47:14;4.25;;;1.52;;
63342;SDS011;49465;57.664;39.686;2024-02-15T02:49:50;6.53;;;1.73;;
63342;SDS011;49465;57.664;39.686;2024-02-15T02:52:22;5.75;;;2.10;;
63342;SDS011;49465;57.664;39.686;2024-02-15T02:54:58;3.63;;;1.77;;
63342;SDS011;49465;57.664;39.686;2024-02-15T02:57:32;4.47;;;1.42;;
63342;SDS011;49465;57.664;39.686;2024-02-15T03:00:07;0.75;;;0.32;;
63342;SDS011;49465;57.664;39.686;2024-02-15T03:02:45;4.18;;;0.82;;
63342;SDS011;49465;57.664;39.686;2024-02-15T03:05:25;1.05;;;0.68;;
63342;SDS011;49465;57.664;39.686;2024-02-15T03:07:57;1.63;;;1.10;;
63342;SDS011;49465;57.664;39.686;2024-02-15T03:10:25;6.55;;;2.50;;
63342;SDS011;49465;57.664;39.686;2024-02-15T03:12:57;0.45;;;0.45;;
63342;SDS011;49465;57.664;39.686;2024-02-15T03:15:23;0.95;;;0.70;;
63342;SDS011;49465;57.664;39.686;2024-02-15T03:17:55;1.50;;;1.23;;
63342;SDS011;49465;57.664;39.686;2024-02-15T03:20:22;0.85;;;0.73;;
63342;SDS011;49465;57.664;39.686;2024-02-15T03:22:58;4.30;;;1.10;;
63342;SDS011;49465;57.664;39.686;2024-02-15T03:25:28;0.47;;;0.47;;
63342;SDS011;49465;57.664;39.686;2024-02-15T03:27:58;7.13;;;1.85;;
63342;SDS011;49465;57.664;39.686;2024-02-15T03:30:30;1.45;;;0.82;;
63342;SDS011;49465;57.664;39.686;2024-02-15T03:33:00;2.00;;;0.95;;
63342;SDS011;49465;57.664;39.686;2024-02-15T03:35:33;0.93;;;0.53;;
63342;SDS011;49465;57.664;39.686;2024-02-15T03:38:05;4.72;;;1.95;;
63342;SDS011;49465;57.664;39.686;2024-02-15T03:40:31;2.15;;;0.82;;
63342;SDS011;49465;57.664;39.686;2024-02-15T03:43:02;4.65;;;1.85;;
63342;SDS011;49465;57.664;39.686;2024-02-15T03:45:35;7.40;;;2.40;;
63342;SDS011;49465;57.664;39.686;2024-02-15T03:48:03;3.40;;;2.00;;
63342;SDS011;49465;57.664;39.686;2024-02-15T03:50:33;2.85;;;1.23;;
63342;SDS011;49465;57.664;39.686;2024-02-15T03:53:00;3.03;;;1.58;;
63342;SDS011;49465;57.664;39.686;2024-02-15T03:55:29;1.42;;;0.88;;
63342;SDS011;49465;57.664;39.686;2024-02-15T03:57:57;0.95;;;0.77;;
63342;SDS011;49465;57.664;39.686;2024-02-15T04:00:27;3.25;;;0.88;;
63342;SDS011;49465;57.664;39.686;2024-02-15T04:02:59;2.33;;;1.10;;
63342;SDS011;49465;57.664;39.686;2024-02-15T04:05:28;4.30;;;1.30;;
63342;SDS011;49465;57.664;39.686;2024-02-15T04:07:57;3.45;;;1.60;;
63342;SDS011;49465;57.664;39.686;2024-02-15T04:10:33;4.57;;;2.03;;
63342;SDS011;49465;57.664;39.686;2024-02-15T04:13:01;2.00;;;1.55;;
63342;SDS011;49465;57.664;39.686;2024-02-15T04:15:42;3.83;;;2.15;;
63342;SDS011;49465;57.664;39.686;2024-02-15T04:18:12;2.42;;;1.13;;
63342;SDS011;49465;57.664;39.686;2024-02-15T04:20:39;4.15;;;1.17;;
63342;SDS011;49465;57.664;39.686;2024-02-15T04:23:10;1.77;;;1.02;;
63342;SDS011;49465;57.664;39.686;2024-02-15T04:25:38;0.70;;;0.70;;
63342;SDS011;49465;57.664;39.686;2024-02-15T04:28:08;3.28;;;1.50;;
63342;SDS011;49465;57.664;39.686;2024-02-15T04:30:35;12.52;;;3.25;;
63342;SDS011;49465;57.664;39.686;2024-02-15T04:33:08;4.53;;;1.25;;
63342;SDS011;49465;57.664;39.686;2024-02-15T04:35:35;2.38;;;0.95;;
63342;SDS011;49465;57.664;39.686;2024-02-15T04:38:07;3.85;;;1.50;;
63342;SDS011;49465;57.664;39.686;2024-02-15T04:40:34;3.75;;;1.65;;
63342;SDS011;49465;57.664;39.686;2024-02-15T04:43:04;1.40;;;0.68;;
63342;SDS011;49465;57.664;39.686;2024-02-15T04:45:31;1.10;;;1.00;;
63342;SDS011;49465;57.664;39.686;2024-02-15T04:48:01;2.72;;;1.08;;
63342;SDS011;49465;57.664;39.686;2024-02-15T04:50:34;5.68;;;1.67;;
63342;SDS011;49465;57.664;39.686;2024-02-15T04:53:01;4.60;;;1.75;;
63342;SDS011;49465;57.664;39.686;2024-02-15T04:55:27;2.35;;;1.73;;
63342;SDS011;49465;57.664;39.686;2024-02-15T04:58:03;1.67;;;1.42;;
63342;SDS011;49465;57.664;39.686;2024-02-15T05:00:33;5.50;;;2.20;;
63342;SDS011;49465;57.664;39.686;2024-02-15T05:03:04;1.80;;;1.20;;
63342;SDS011;49465;57.664;39.686;2024-02-15T05:05:33;4.20;;;1.83;;
63342;SDS011;49465;57.664;39.686;2024-02-15T05:08:07;3.00;;;1.00;;
63342;SDS011;49465;57.664;39.686;2024-02-15T05:10:39;4.80;;;1.02;;
63342;SDS011;49465;57.664;39.686;2024-02-15T05:13:08;3.90;;;1.60;;
63342;SDS011;49465;57.664;39.686;2024-02-15T05:15:37;4.93;;;1.63;;
63342;SDS011;49465;57.664;39.686;2024-02-15T05:18:07;4.32;;;1.33;;
63342;SDS011;49465;57.664;39.686;2024-02-15T05:20:33;6.25;;;2.33;;
63342;SDS011;49465;57.664;39.686;2024-02-15T05:22:59;3.22;;;1.30;;
63342;SDS011;49465;57.664;39.686;2024-02-15T05:25:34;2.78;;;1.45;;
63342;SDS011;49465;57.664;39.686;2024-02-15T05:28:03;3.55;;;1.50;;
63342;SDS011;49465;57.664;39.686;2024-02-15T05:30:40;3.22;;;1.40;;
63342;SDS011;49465;57.664;39.686;2024-02-15T05:33:12;6.05;;;2.10;;
63342;SDS011;49465;57.664;39.686;2024-02-15T05:35:39;0.50;;;0.50;;
63342;SDS011;49465;57.664;39.686;2024-02-15T05:38:11;4.20;;;1.33;;
63342;SDS011;49465;57.664;39.686;2024-02-15T05:40:40;0.73;;;0.50;;
63342;SDS011;49465;57.664;39.686;2024-02-15T05:43:07;3.58;;;1.85;;
63342;SDS011;49465;57.664;39.686;2024-02-15T05:45:33;4.38;;;2.75;;
63342;SDS011;49465;57.664;39.686;2024-02-15T05:48:02;2.10;;;0.95;;
63342;SDS011;49465;57.664;39.686;2024-02-15T05:50:41;2.70;;;1.40;;
63342;SDS011;49465;57.664;39.686;2024-02-15T05:53:10;4.10;;;1.98;;
63342;SDS011;49465;57.664;39.686;2024-02-15T05:55:41;4.60;;;1.42;;
63342;SDS011;49465;57.664;39.686;2024-02-15T05:58:09;3.40;;;1.27;;
63342;SDS011;49465;57.664;39.686;2024-02-15T06:00:39;0.75;;;0.73;;
63342;SDS011;49465;57.664;39.686;2024-02-15T06:03:08;3.88;;;1.50;;
63342;SDS011;49465;57.664;39.686;2024-02-15T06:05:38;1.05;;;0.90;;
63342;SDS011;49465;57.664;39.686;2024-02-15T06:08:05;3.83;;;1.50;;
63342;SDS011;49465;57.664;39.686;2024-02-15T06:10:35;1.10;;;0.98;;
63342;SDS011;49465;57.664;39.686;2024-02-15T06:13:01;3.50;;;1.58;;
63342;SDS011;49465;57.664;39.686;2024-02-15T06:15:28;1.85;;;1.02;;
63342;SDS011;49465;57.664;39.686;2024-02-15T06:17:57;0.45;;;0.45;;
63342;SDS011;49465;57.664;39.686;2024-02-15T06:20:24;2.60;;;1.25;;
63342;SDS011;49465;57.664;39.686;2024-02-15T06:22:53;1.60;;;0.70;;
63342;SDS011;49465;57.664;39.686;2024-02-15T06:25:20;4.80;;;2.40;;
63342;SDS011;49465;57.664;39.686;2024-02-15T06:27:48;6.10;;;2.58;;
63342;SDS011;49465;57.664;39.686;2024-02-15T06:30:23;11.75;;;3.83;;
63342;SDS011;49465;57.664;39.686;2024-02-15T06:33:10;7.53;;;2.90;;
63342;SDS011;49465;57.664;39.686;2024-02-15T06:35:58;5.55;;;2.95;;
63342;SDS011;49465;57.664;39.686;2024-02-15T06:38:55;7.15;;;2.95;;
63342;SDS011;49465;57.664;39.686;2024-02-15T06:41:48;7.47;;;2.75;;
63342;SDS011;49465;57.664;39.686;2024-02-15T06:44:26;5.65;;;2.53;;
63342;SDS011;49465;57.664;39.686;2024-02-15T06:47:03;7.68;;;3.05;;
63342;SDS011;49465;57.664;39.686;2024-02-15T06:49:41;7.28;;;2.83;;
63342;SDS011;49465;57.664;39.686;2024-02-15T06:52:19;7.03;;;3.33;;
63342;SDS011;49465;57.664;39.686;2024-02-15T06:54:59;10.95;;;2.13;;
63342;SDS011;49465;57.664;39.686;2024-02-15T06:57:34;8.25;;;3.33;;
63342;SDS011;49465;57.664;39.686;2024-02-15T07:00:09;4.78;;;2.30;;
63342;SDS011;49465;57.664;39.686;2024-02-15T07:02:43;9.27;;;2.72;;
63342;SDS011;49465;57.664;39.686;2024-02-15T07:05:17;7.18;;;3.28;;
63342;SDS011;49465;57.664;39.686;2024-02-15T07:07:58;7.43;;;2.22;;
63342;SDS011;49465;57.664;39.686;2024-02-15T07:10:41;7.70;;;3.10;;
63342;SDS011;49465;57.664;39.686;2024-02-15T07:13:23;6.03;;;2.60;;
63342;SDS011;49465;57.664;39.686;2024-02-15T07:16:00;9.02;;;2.92;;
63342;SDS011;49465;57.664;39.686;2024-02-15T07:18:41;5.85;;;2.40;;
63342;SDS011;49465;57.664;39.686;2024-02-15T07:21:22;7.82;;;2.30;;
63342;SDS011;49465;57.664;39.686;2024-02-15T07:24:00;8.23;;;3.03;;
63342;SDS011;49465;57.664;39.686;2024-02-15T07:26:36;6.57;;;1.58;;
63342;SDS011;49465;57.664;39.686;2024-02-15T07:29:15;8.23;;;2.58;;
63342;SDS011;49465;57.664;39.686;2024-02-15T07:31:53;7.40;;;2.35;;
63342;SDS011;49465;57.664;39.686;2024-02-15T07:34:34;3.70;;;1.83;;
63342;SDS011;49465;57.664;39.686;2024-02-15T07:37:16;5.45;;;2.40;;
63342;SDS011;49465;57.664;39.686;2024-02-15T07:39:52;10.23;;;2.67;;
63342;SDS011;49465;57.664;39.686;2024-02-15T07:42:27;5.82;;;2.55;;
63342;SDS011;49465;57.664;39.686;2024-02-15T07:45:01;4.80;;;2.08;;
63342;SDS011;49465;57.664;39.686;2024-02-15T07:47:42;8.30;;;2.60;;
63342;SDS011;49465;57.664;39.686;2024-02-15T07:50:16;6.30;;;2.50;;
63342;SDS011;49465;57.664;39.686;2024-02-15T07:52:53;4.68;;;1.40;;
63342;SDS011;49465;57.664;39.686;2024-02-15T07:55:28;4.72;;;1.75;;
63342;SDS011;49465;57.664;39.686;2024-02-15T07:58:03;6.65;;;2.22;;
63342;SDS011;49465;57.664;39.686;2024-02-15T08:00:41;2.22;;;1.55;;
63342;SDS011;49465;57.664;39.686;2024-02-15T08:03:23;12.75;;;3.72;;
63342;SDS011;49465;57.664;39.686;2024-02-15T08:06:05;9.88;;;3.08;;
63342;SDS011;49465;57.664;39.686;2024-02-15T08:08:49;4.35;;;1.80;;
63342;SDS011;49465;57.664;39.686;2024-02-15T08:11:25;6.50;;;1.85;;
63342;SDS011;49465;57.664;39.686;2024-02-15T08:14:05;9.95;;;3.85;;
63342;SDS011;49465;57.664;39.686;2024-02-15T08:16:48;5.05;;;2.50;;
63342;SDS011;49465;57.664;39.686;2024-02-15T08:19:22;9.55;;;2.90;;
63342;SDS011;49465;57.664;39.686;2024-02-15T08:22:02;7.03;;;2.85;;
63342;SDS011;49465;57.664;39.686;2024-02-15T08:24:37;8.88;;;2.53;;
63342;SDS011;49465;57.664;39.686;2024-02-15T08:27:15;4.78;;;2.38;;
63342;SDS011;49465;57.664;39.686;2024-02-15T08:29:56;4.93;;;1.63;;
63342;SDS011;49465;57.664;39.686;2024-02-15T08:32:35;5.43;;;2.90;;
63342;SDS011;49465;57.664;39.686;2024-02-15T08:35:12;8.68;;;2.08;;
63342;SDS011;49465;57.664;39.686;2024-02-15T08:37:47;7.85;;;2.92;;
63342;SDS011;49465;57.664;39.686;2024-02-15T08:40:22;6.75;;;2.88;;
63342;SDS011;49465;57.664;39.686;2024-02-15T08:42:55;10.90;;;3.80;;
63342;SDS011;49465;57.664;39.686;2024-02-15T08:45:34;7.95;;;3.20;;
63342;SDS011;49465;57.664;39.686;2024-02-15T08:50:55;7.65;;;3.67;;
63342;SDS011;49465;57.664;39.686;2024-02-15T08:53:28;11.80;;;3.35;;
63342;SDS011;49465;57.664;39.686;2024-02-15T08:56:07;4.53;;;2.33;;
63342;SDS011;49465;57.664;39.686;2024-02-15T08:58:51;6.82;;;2.45;;
63342;SDS011;49465;57.664;39.686;2024-02-15T09:01:27;6.38;;;3.25;;
63342;SDS011;49465;57.664;39.686;2024-02-15T09:03:57;0.95;;;0.85;;
63342;SDS011;49465;57.664;39.686;2024-02-15T09:06:31;7.15;;;3.10;;
63342;SDS011;49465;57.664;39.686;2024-02-15T09:09:14;3.95;;;1.73;;
63342;SDS011;49465;57.664;39.686;2024-02-15T09:11:51;9.13;;;2.97;;
63342;SDS011;49465;57.664;39.686;2024-02-15T09:14:23;2.33;;;1.35;;
63342;SDS011;49465;57.664;39.686;2024-02-15T09:16:55;7.80;;;2.72;;
63342;SDS011;49465;57.664;39.686;2024-02-15T09:19:32;11.63;;;2.97;;
63342;SDS011;49465;57.664;39.686;2024-02-15T09:27:56;11.13;;;4.13;;
63342;SDS011;49465;57.664;39.686;2024-02-15T09:30:36;6.32;;;2.83;;
63342;SDS011;49465;57.664;39.686;2024-02-15T09:33:08;10.38;;;3.53;;
63342;SDS011;49465;57.664;39.686;2024-02-15T09:35:53;12.35;;;3.63;;
63342;SDS011;49465;57.664;39.686;2024-02-15T09:38:31;7.63;;;3.30;;
63342;SDS011;49465;57.664;39.686;2024-02-15T09:41:13;10.57;;;3.33;;
63342;SDS011;49465;57.664;39.686;2024-02-15T09:43:52;7.13;;;3.38;;
63342;SDS011;49465;57.664;39.686;2024-02-15T09:46:27;8.80;;;3.42;;
63342;SDS011;49465;57.664;39.686;2024-02-15T09:49:20;7.10;;;2.50;;
63342;SDS011;49465;57.664;39.686;2024-02-15T09:52:09;12.27;;;4.22;;
63342;SDS011;49465;57.664;39.686;2024-02-15T09:54:56;6.72;;;2.17;;
63342;SDS011;49465;57.664;39.686;2024-02-15T09:57:33;10.95;;;4.68;;
63342;SDS011;49465;57.664;39.686;2024-02-15T10:00:17;7.47;;;3.10;;
63342;SDS011;49465;57.664;39.686;2024-02-15T10:02:55;8.05;;;3.50;;
63342;SDS011;49465;57.664;39.686;2024-02-15T10:05:27;6.95;;;2.13;;
63342;SDS011;49465;57.664;39.686;2024-02-15T10:08:07;9.90;;;4.15;;
63342;SDS011;49465;57.664;39.686;2024-02-15T10:10:46;9.77;;;4.07;;
63342;SDS011;49465;57.664;39.686;2024-02-15T10:13:38;13.65;;;4.93;;
63342;SDS011;49465;57.664;39.686;2024-02-15T10:18:53;6.38;;;2.65;;
63342;SDS011;49465;57.664;39.686;2024-02-15T10:21:37;9.40;;;4.13;;
63342;SDS011;49465;57.664;39.686;2024-02-15T10:24:10;8.85;;;4.00;;
63342;SDS011;49465;57.664;39.686;2024-02-15T10:26:47;7.32;;;3.38;;
63342;SDS011;49465;57.664;39.686;2024-02-15T10:29:20;12.80;;;3.80;;
63342;SDS011;49465;57.664;39.686;2024-02-15T10:31:52;9.13;;;3.80;;
63342;SDS011;49465;57.664;39.686;2024-02-15T10:34:26;7.88;;;3.50;;
63342;SDS011;49465;57.664;39.686;2024-02-15T10:37:14;9.30;;;4.30;;
63342;SDS011;49465;57.664;39.686;2024-02-15T10:39:49;11.45;;;4.22;;
63342;SDS011;49465;57.664;39.686;2024-02-15T10:42:38;7.57;;;3.38;;
63342;SDS011;49465;57.664;39.686;2024-02-15T10:45:13;16.70;;;3.80;;
63342;SDS011;49465;57.664;39.686;2024-02-15T10:47:45;6.63;;;3.30;;
63342;SDS011;49465;57.664;39.686;2024-02-15T10:50:15;12.57;;;4.75;;
63342;SDS011;49465;57.664;39.686;2024-02-15T10:53:28;7.93;;;2.80;;
63342;SDS011;49465;57.664;39.686;2024-02-15T10:56:15;10.18;;;2.67;;
63342;SDS011;49465;57.664;39.686;2024-02-15T11:01:50;8.90;;;3.67;;
63342;SDS011;49465;57.664;39.686;2024-02-15T11:04:29;4.70;;;2.20;;
63342;SDS011;49465;57.664;39.686;2024-02-15T11:07:06;7.88;;;2.47;;
63342;SDS011;49465;57.664;39.686;2024-02-15T11:09:39;10.10;;;3.58;;
63342;SDS011;49465;57.664;39.686;2024-02-15T11:12:11;18.80;;;3.70;;
63342;SDS011;49465;57.664;39.686;2024-02-15T11:14:45;14.25;;;4.05;;
63342;SDS011;49465;57.664;39.686;2024-02-15T11:23:01;13.65;;;4.72;;
63342;SDS011;49465;57.664;39.686;2024-02-15T11:25:32;5.25;;;2.90;;
63342;SDS011;49465;57.664;39.686;2024-02-15T11:30:51;6.70;;;3.60;;
63342;SDS011;49465;57.664;39.686;2024-02-15T11:33:32;9.07;;;2.85;;
63342;SDS011;49465;57.664;39.686;2024-02-15T11:36:10;12.18;;;4.00;;
63342;SDS011;49465;57.664;39.686;2024-02-15T11:38:44;14.10;;;4.63;;
63342;SDS011;49465;57.664;39.686;2024-02-15T11:41:25;9.95;;;3.28;;
63342;SDS011;49465;57.664;39.686;2024-02-15T11:43:59;9.70;;;3.83;;
63342;SDS011;49465;57.664;39.686;2024-02-15T11:46:31;13.23;;;4.53;;
63342;SDS011;49465;57.664;39.686;2024-02-15T11:49:04;12.85;;;4.78;;
63342;SDS011;49465;57.664;39.686;2024-02-15T11:51:53;19.30;;;4.85;;
63342;SDS011;49465;57.664;39.686;2024-02-15T11:54:38;13.48;;;4.75;;
63342;SDS011;49465;57.664;39.686;2024-02-15T11:57:15;7.78;;;2.88;;
63342;SDS011;49465;57.664;39.686;2024-02-15T12:00:01;9.98;;;3.97;;
63342;SDS011;49465;57.664;39.686;2024-02-15T12:02:54;14.23;;;4.88;;
63342;SDS011;49465;57.664;39.686;2024-02-15T12:05:55;11.00;;;4.60;;
63342;SDS011;49465;57.664;39.686;2024-02-15T12:08:54;17.92;;;3.45;;
63342;SDS011;49465;57.664;39.686;2024-02-15T12:11:42;10.93;;;3.60;;
63342;SDS011;49465;57.664;39.686;2024-02-15T12:14:32;7.82;;;2.42;;
63342;SDS011;49465;57.664;39.686;2024-02-15T12:17:20;13.35;;;4.22;;
63342;SDS011;49465;57.664;39.686;2024-02-15T12:20:10;11.10;;;3.72;;
63342;SDS011;49465;57.664;39.686;2024-02-15T12:22:45;9.23;;;2.92;;
63342;SDS011;49465;57.664;39.686;2024-02-15T12:25:22;8.35;;;2.95;;
63342;SDS011;49465;57.664;39.686;2024-02-15T12:27:53;12.82;;;4.22;;
63342;SDS011;49465;57.664;39.686;2024-02-15T12:30:25;5.18;;;2.53;;
63342;SDS011;49465;57.664;39.686;2024-02-15T12:33:12;8.27;;;3.10;;
63342;SDS011;49465;57.664;39.686;2024-02-15T12:35:50;11.52;;;4.10;;
63342;SDS011;49465;57.664;39.686;2024-02-15T12:38:19;10.23;;;4.35;;
63342;SDS011;49465;57.664;39.686;2024-02-15T12:40:51;10.48;;;3.47;;
63342;SDS011;49465;57.664;39.686;2024-02-15T12:43:23;9.57;;;3.83;;
63342;SDS011;49465;57.664;39.686;2024-02-15T12:45:55;7.50;;;3.10;;
63342;SDS011;49465;57.664;39.686;2024-02-15T12:48:25;6.47;;;2.10;;
63342;SDS011;49465;57.664;39.686;2024-02-15T12:51:00;6.22;;;2.10;;
63342;SDS011;49465;57.664;39.686;2024-02-15T12:53:44;4.65;;;2.33;;
63342;SDS011;49465;57.664;39.686;2024-02-15T12:56:25;9.07;;;3.83;;
63342;SDS011;49465;57.664;39.686;2024-02-15T12:58:54;12.05;;;3.85;;
63342;SDS011;49465;57.664;39.686;2024-02-15T13:01:28;5.35;;;2.08;;
63342;SDS011;49465;57.664;39.686;2024-02-15T13:03:59;7.18;;;3.08;;
63342;SDS011;49465;57.664;39.686;2024-02-15T13:06:33;10.60;;;3.33;;
63342;SDS011;49465;57.664;39.686;2024-02-15T13:09:03;6.20;;;2.35;;
63342;SDS011;49465;57.664;39.686;2024-02-15T13:11:43;6.15;;;2.55;;
63342;SDS011;49465;57.664;39.686;2024-02-15T13:14:15;8.55;;;3.72;;
63342;SDS011;49465;57.664;39.686;2024-02-15T13:16:45;10.30;;;3.90;;
63342;SDS011;49465;57.664;39.686;2024-02-15T13:19:18;12.48;;;4.93;;
63342;SDS011;49465;57.664;39.686;2024-02-15T13:21:53;8.13;;;3.15;;
63342;SDS011;49465;57.664;39.686;2024-02-15T13:24:26;7.85;;;2.90;;
63342;SDS011;49465;57.664;39.686;2024-02-15T13:27:00;10.45;;;3.92;;
63342;SDS011;49465;57.664;39.686;2024-02-15T13:29:32;11.65;;;2.97;;
63342;SDS011;49465;57.664;39.686;2024-02-15T13:32:04;9.85;;;3.67;;
63342;SDS011;49465;57.664;39.686;2024-02-15T13:34:40;11.25;;;3.83;;
63342;SDS011;49465;57.664;39.686;2024-02-15T13:37:12;10.00;;;3.30;;
63342;SDS011;49465;57.664;39.686;2024-02-15T13:39:44;10.55;;;3.42;;
63342;SDS011;49465;57.664;39.686;2024-02-15T13:42:18;7.90;;;2.80;;
63342;SDS011;49465;57.664;39.686;2024-02-15T13:44:54;9.05;;;2.58;;
63342;SDS011;49465;57.664;39.686;2024-02-15T13:47:27;5.35;;;2.25;;
63342;SDS011;49465;57.664;39.686;2024-02-15T13:49:59;10.82;;;3.90;;
63342;SDS011;49465;57.664;39.686;2024-02-15T13:55:20;11.63;;;3.22;;
63342;SDS011;49465;57.664;39.686;2024-02-15T13:57:54;13.23;;;3.50;;
63342;SDS011;49465;57.664;39.686;2024-02-15T14:00:31;10.50;;;4.07;;
63342;SDS011;49465;57.664;39.686;2024-02-15T14:03:04;9.38;;;2.65;;
63342;SDS011;49465;57.664;39.686;2024-02-15T14:05:34;9.23;;;3.67;;
63342;SDS011;49465;57.664;39.686;2024-02-15T14:08:11;7.53;;;2.40;;
63342;SDS011;49465;57.664;39.686;2024-02-15T14:10:43;8.88;;;2.72;;
63342;SDS011;49465;57.664;39.686;2024-02-15T14:13:21;6.45;;;2.72;;
63342;SDS011;49465;57.664;39.686;2024-02-15T14:15:52;11.43;;;4.05;;
63342;SDS011;49465;57.664;39.686;2024-02-15T14:18:31;10.20;;;4.45;;
63342;SDS011;49465;57.664;39.686;2024-02-15T14:21:18;4.22;;;1.60;;
63342;SDS011;49465;57.664;39.686;2024-02-15T14:23:50;13.52;;;4.55;;
63342;SDS011;49465;57.664;39.686;2024-02-15T14:26:25;5.97;;;2.92;;
63342;SDS011;49465;57.664;39.686;2024-02-15T14:29:00;13.02;;;3.70;;
63342;SDS011;49465;57.664;39.686;2024-02-15T14:31:28;10.15;;;2.90;;
63342;SDS011;49465;57.664;39.686;2024-02-15T14:34:15;8.70;;;2.70;;
63342;SDS011;49465;57.664;39.686;2024-02-15T14:36:51;6.38;;;2.42;;
63342;SDS011;49465;57.664;39.686;2024-02-15T14:39:29;10.57;;;4.10;;
63342;SDS011;49465;57.664;39.686;2024-02-15T14:42:06;4.28;;;2.08;;
63342;SDS011;49465;57.664;39.686;2024-02-15T14:44:39;7.03;;;3.05;;
63342;SDS011;49465;57.664;39.686;2024-02-15T14:47:11;4.25;;;2.13;;
63342;SDS011;49465;57.664;39.686;2024-02-15T14:49:45;8.70;;;3.92;;
63342;SDS011;49465;57.664;39.686;2024-02-15T14:52:15;6.40;;;2.95;;
63342;SDS011;49465;57.664;39.686;2024-02-15T14:54:52;7.47;;;2.78;;
63342;SDS011;49465;57.664;39.686;2024-02-15T14:59:52;11.10;;;4.05;;
63342;SDS011;49465;57.664;39.686;2024-02-15T15:02:18;11.02;;;4.50;;
63342;SDS011;49465;57.664;39.686;2024-02-15T15:04:50;10.90;;;3.38;;
63342;SDS011;49465;57.664;39.686;2024-02-15T15:07:48;5.05;;;2.10;;
63342;SDS011;49465;57.664;39.686;2024-02-15T15:10:38;2.17;;;1.45;;
63342;SDS011;49465;57.664;39.686;2024-02-15T15:13:26;1.73;;;1.35;;
63342;SDS011;49465;57.664;39.686;2024-02-15T15:15:54;3.08;;;1.38;;
63342;SDS011;49465;57.664;39.686;2024-02-15T15:18:26;0.68;;;0.40;;
63342;SDS011;49465;57.664;39.686;2024-02-15T15:20:52;4.68;;;1.38;;
63342;SDS011;49465;57.664;39.686;2024-02-15T15:23:26;5.57;;;1.30;;
63342;SDS011;49465;57.664;39.686;2024-02-15T15:26:00;2.67;;;1.10;;
63342;SDS011;49465;57.664;39.686;2024-02-15T15:28:30;4.97;;;2.25;;
63342;SDS011;49465;57.664;39.686;2024-02-15T15:31:01;1.85;;;0.82;;
63342;SDS011;49465;57.664;39.686;2024-02-15T15:33:33;5.90;;;1.92;;
63342;SDS011;49465;57.664;39.686;2024-02-15T15:36:07;1.17;;;0.80;;
63342;SDS011;49465;57.664;39.686;2024-02-15T15:38:48;3.92;;;1.23;;
63342;SDS011;49465;57.664;39.686;2024-02-15T15:41:21;1.50;;;0.93;;
63342;SDS011;49465;57.664;39.686;2024-02-15T15:43:55;0.90;;;0.88;;
63342;SDS011;49465;57.664;39.686;2024-02-15T15:46:32;6.05;;;1.85;;